createdAt,value
2018-06-29T01:10:01.363Z,0.1
2018-06-29T01:12:01.091Z,0.2
2018-06-29T01:13:01.122Z,0.3
2018-06-29T01:15:01.234Z,0.4
2018-06-29T01:16:01.100Z,0.5
2018-06-29T01:18:01.124Z,0.6
2018-06-29T01:19:01.092Z,0.7
2018-06-29T01:21:01.267Z,0.8
2018-06-29T01:22:01.096Z,0.9
2018-06-29T01:24:01.126Z,1.0
2018-06-29T01:27:01.233Z,1.1
2018-06-29T01:29:01.248Z,1.2
2018-06-29T01:30:01.094Z,1.3
2018-06-29T01:32:01.241Z,1.4
2018-06-29T01:33:01.091Z,1.5
2018-06-29T01:34:01.094Z,1.7
2018-06-29T01:35:01.095Z,1.8
2018-06-29T01:36:01.094Z,1.9
2018-06-29T01:37:01.264Z,2.1
2018-06-29T01:38:01.074Z,2.3
2018-06-29T01:39:01.098Z,2.5
2018-06-29T01:40:01.094Z,2.8
2018-06-29T01:41:01.096Z,3.1
2018-06-29T01:42:01.310Z,3.3
2018-06-29T01:43:01.096Z,3.6
2018-06-29T01:44:01.066Z,3.9
2018-06-29T01:45:01.101Z,4.3
2018-06-29T01:46:01.103Z,4.7
2018-06-29T01:47:01.240Z,5.1
2018-06-29T01:48:01.097Z,5.6
2018-06-29T01:49:01.100Z,6.1
2018-06-29T01:51:01.084Z,6.8
2018-06-29T01:52:01.229Z,7.5
2018-06-29T01:53:01.087Z,8.3
2018-06-29T01:54:01.155Z,9.2
2018-06-29T01:55:01.111Z,10.2
2018-06-29T01:56:01.084Z,11.3
2018-06-29T01:57:01.227Z,12.5
2018-06-29T01:58:01.090Z,13.7
2018-06-29T01:59:01.090Z,15.2
2018-06-29T02:00:01.082Z,16.8
2018-06-29T02:01:01.084Z,18.6
2018-06-29T02:02:01.233Z,20.6
2018-06-29T02:03:01.086Z,22.8
2018-06-29T02:04:01.086Z,25.2
2018-06-29T02:05:01.091Z,27.9
2018-06-29T02:06:01.113Z,30.8
2018-06-29T02:07:01.226Z,34.1
2018-06-29T02:08:01.164Z,37.7
2018-06-29T02:09:01.089Z,41.7
2018-06-29T02:10:01.085Z,46.2
2018-06-29T02:11:01.084Z,51.2
2018-06-29T02:12:01.233Z,56.8
2018-06-29T02:13:01.085Z,63.0
2018-06-29T02:14:01.087Z,69.9
2018-06-29T02:15:01.090Z,77.6
2018-06-29T02:16:01.089Z,86.1
2018-06-29T02:17:01.228Z,95.6
2018-06-29T02:18:01.085Z,106.1
2018-06-29T02:19:01.087Z,117.7
2018-06-29T02:20:01.090Z,130.6
2018-06-29T02:21:01.086Z,144.8
2018-06-29T02:22:01.233Z,160.5
2018-06-29T02:23:01.089Z,177.7
2018-06-29T02:24:01.088Z,196.5
2018-06-29T02:25:01.090Z,217.1
2018-06-29T02:26:01.096Z,239.5
2018-06-29T02:27:01.235Z,263.5
2018-06-29T02:28:01.090Z,289.5
2018-06-29T02:29:01.092Z,317.2
2018-06-29T02:30:01.092Z,346.9
2018-06-29T02:31:01.090Z,378.7
2018-06-29T02:32:01.241Z,412.5
2018-06-29T02:33:01.117Z,448.7
2018-06-29T02:34:01.059Z,487.1
2018-06-29T02:35:01.091Z,528.1
2018-06-29T02:36:01.064Z,569.5
2018-06-29T02:37:01.258Z,613.5
2018-06-29T02:38:01.090Z,660.0
2018-06-29T02:39:01.096Z,709.0
2018-06-29T02:40:01.096Z,760.6
2018-06-29T02:41:01.101Z,815.1
2018-06-29T02:42:01.249Z,872.5
2018-06-29T02:43:01.123Z,933.2
2018-06-29T02:44:01.095Z,997.1
2018-06-29T02:45:01.106Z,1064.3
2018-06-29T02:46:01.103Z,1134.9
2018-06-29T02:47:01.244Z,1209.1
2018-06-29T02:48:01.095Z,1286.8
2018-06-29T02:49:01.099Z,1368.1
2018-06-29T02:50:01.070Z,1453.1
2018-06-29T02:51:01.096Z,1543.8
2018-06-29T02:52:01.315Z,1638.1
2018-06-29T02:53:01.125Z,1736.5
2018-06-29T02:54:01.098Z,1838.8
2018-06-29T02:55:01.100Z,1945.2
2018-06-29T02:56:01.103Z,2055.6
2018-06-29T02:57:01.250Z,2170.1
2018-06-29T02:58:01.099Z,2288.7
2018-06-29T03:00:01.211Z,2422.5
2018-06-29T03:01:01.110Z,2561.6
2018-06-29T03:02:01.229Z,2706.6
2018-06-29T03:03:01.087Z,2858.3
2018-06-29T03:04:01.089Z,3017.3
2018-06-29T03:05:01.086Z,3182.6
2018-06-29T03:06:01.088Z,3355.7
2018-06-29T03:07:01.262Z,3536.1
2018-06-29T03:08:01.087Z,3723.3
2018-06-29T03:09:01.090Z,3917.4
2018-06-29T03:10:01.086Z,4118.7
2018-06-29T03:11:01.085Z,4329.0
2018-06-29T03:12:01.229Z,4544.5
2018-06-29T03:13:01.091Z,4762.3
2018-06-29T03:14:01.085Z,4987.7
2018-06-29T03:15:01.053Z,5209.9
2018-06-29T03:16:01.057Z,5431.3
2018-06-29T03:17:01.233Z,5649.3
2018-06-29T03:18:01.085Z,5869.0
2018-06-29T03:19:01.053Z,6095.3
2018-06-29T03:20:01.055Z,6335.3
2018-06-29T03:21:01.054Z,6587.5
2018-06-29T03:22:01.257Z,6847.0
2018-06-29T03:23:01.089Z,7106.9
2018-06-29T03:24:01.216Z,7360.1
2018-06-29T03:25:01.087Z,7603.8
2018-06-29T03:26:01.092Z,7842.2
2018-06-29T03:27:01.203Z,8086.0
2018-06-29T03:28:01.093Z,8343.5
2018-06-29T03:29:01.090Z,8613.2
2018-06-29T03:30:01.094Z,8893.1
2018-06-29T03:31:01.091Z,9187.1
2018-06-29T03:32:01.255Z,9495.1
2018-06-29T03:33:01.093Z,9810.5
2018-06-29T03:34:01.090Z,10128.4
2018-06-29T03:35:01.092Z,10440.1
2018-06-29T03:36:01.066Z,10739.7
2018-06-29T03:37:01.262Z,11029.1
2018-06-29T03:38:01.058Z,11321.7
2018-06-29T03:39:01.091Z,11618.3
2018-06-29T03:40:01.100Z,11916.3
2018-06-29T03:41:01.092Z,12214.0
2018-06-29T03:42:01.339Z,12507.3
2018-06-29T03:43:01.093Z,12793.5
2018-06-29T03:44:01.162Z,13065.9
2018-06-29T03:45:01.063Z,13326.7
2018-06-29T03:46:01.099Z,13576.2
2018-06-29T03:47:01.246Z,13816.9
2018-06-29T03:48:01.092Z,14053.1
2018-06-29T03:49:01.095Z,14281.1
2018-06-29T03:50:01.065Z,14500.9
2018-06-29T03:51:01.109Z,14720.3
2018-06-29T03:52:01.237Z,14941.9
2018-06-29T03:53:01.097Z,15166.4
2018-06-29T03:54:01.066Z,15394.2
2018-06-29T03:55:01.096Z,15632.9
2018-06-29T03:56:01.101Z,15873.8
2018-06-29T03:57:01.279Z,16111.9
2018-06-29T03:58:01.096Z,16349.4
2018-06-29T04:00:01.150Z,16584.4
2018-06-29T04:01:01.087Z,16814.2
2018-06-29T04:02:01.258Z,17042.0
2018-06-29T04:03:01.056Z,17267.8
2018-06-29T04:04:01.052Z,17488.5
2018-06-29T04:05:01.082Z,17712.0
2018-06-29T04:06:01.054Z,17949.9
2018-06-29T04:07:01.273Z,18196.7
2018-06-29T04:08:01.053Z,18443.7
2018-06-29T04:09:01.052Z,18684.1
2018-06-29T04:10:01.087Z,18917.9
2018-06-29T04:11:01.056Z,19141.6
2018-06-29T04:12:01.226Z,19374.4
2018-06-29T04:13:01.087Z,19610.9
2018-06-29T04:14:01.088Z,19850.4
2018-06-29T04:15:01.058Z,20088.9
2018-06-29T04:16:01.090Z,20325.0
2018-06-29T04:17:01.239Z,20591.9
2018-06-29T04:18:01.087Z,20878.0
2018-06-29T04:19:01.055Z,21181.1
2018-06-29T04:20:01.089Z,21476.8
2018-06-29T04:21:01.090Z,21759.1
2018-06-29T04:22:01.365Z,22020.1
2018-06-29T04:23:01.094Z,22303.3
2018-06-29T04:24:01.061Z,22611.3
2018-06-29T04:25:01.056Z,22929.1
2018-06-29T04:26:01.090Z,23236.3
2018-06-29T04:27:01.236Z,23517.4
2018-06-29T04:28:01.099Z,23797.9
2018-06-29T04:29:01.063Z,24079.5
2018-06-29T04:30:01.061Z,24341.3
2018-06-29T04:31:01.065Z,24602.7
2018-06-29T04:32:01.237Z,24791.4
2018-06-29T04:33:01.110Z,24953.6
2018-06-29T04:34:01.062Z,25045.6
2018-06-29T04:35:01.092Z,25149.9
2018-06-29T04:36:01.091Z,25273.1
2018-06-29T04:37:01.266Z,25468.5
2018-06-29T04:38:01.093Z,25599.3
2018-06-29T04:39:01.131Z,25690.1
2018-06-29T04:40:01.062Z,25796.7
2018-06-29T04:41:01.063Z,25914.8
2018-06-29T04:42:01.266Z,25954.9
2018-06-29T04:43:01.194Z,26060.7
2018-06-29T04:44:01.097Z,26205.2
2018-06-29T04:45:01.063Z,26393.4
2018-06-29T04:46:01.066Z,26646.3
2018-06-29T04:47:01.245Z,26981.3
2018-06-29T04:48:01.100Z,27335.5
2018-06-29T04:49:01.097Z,27753.4
2018-06-29T04:50:01.070Z,28184.9
2018-06-29T04:51:01.101Z,28617.7
2018-06-29T04:52:01.241Z,28986.3
2018-06-29T04:53:01.095Z,29416.0
2018-06-29T04:54:01.110Z,29925.6
2018-06-29T04:55:01.098Z,30455.5
2018-06-29T04:56:01.100Z,31149.7
2018-06-29T04:57:01.221Z,32061.7
2018-06-29T04:58:01.068Z,32871.1
2018-06-29T04:59:01.067Z,33723.3
2018-06-29T05:00:01.073Z,34564.3
2018-06-29T05:01:01.080Z,35570.7
2018-06-29T05:02:01.240Z,36523.5
2018-06-29T05:03:01.067Z,37793.1
2018-06-29T05:04:01.102Z,39336.7
2018-06-29T05:05:01.102Z,41330.8
2018-06-29T05:06:01.106Z,43552.0
2018-06-29T05:07:01.248Z,45762.7
2018-06-29T05:08:01.077Z,47940.0
2018-06-29T05:09:01.067Z,50038.0
2018-06-29T05:10:01.105Z,52080.5
2018-06-29T05:11:01.103Z,53949.1
2018-06-29T05:12:01.244Z,55680.5
2018-06-29T05:13:01.101Z,57432.9
2018-06-29T05:14:01.075Z,59082.0
2018-06-29T05:15:01.073Z,60706.0
2018-06-29T05:16:01.067Z,62091.2
2018-06-29T05:17:01.247Z,63478.4
2018-06-29T05:19:01.217Z,64524.6
2018-06-29T05:20:01.086Z,65273.3
2018-06-29T05:21:01.054Z,65535.0
2018-06-29T05:30:01.299Z,65535.0
2018-06-29T05:45:01.403Z,65535.0
2018-06-29T06:00:01.403Z,65535.0
2018-06-29T06:15:01.215Z,65535.0
2018-06-29T06:30:01.374Z,65535.0
2018-06-29T06:45:01.261Z,65535.0
2018-06-29T07:00:01.440Z,65535.0
2018-06-29T07:15:01.211Z,65535.0
2018-06-29T07:30:01.320Z,65535.0
2018-06-29T07:45:01.328Z,65535.0
2018-06-29T08:00:01.285Z,65535.0
2018-06-29T08:15:01.227Z,65535.0
2018-06-29T08:30:01.369Z,65535.0
2018-06-29T08:45:01.239Z,65535.0
2018-06-29T09:00:01.322Z,65535.0
2018-06-29T09:15:01.229Z,65535.0
2018-06-29T09:30:01.451Z,65535.0
2018-06-29T09:45:01.389Z,65535.0
2018-06-29T10:00:01.435Z,65535.0
2018-06-29T10:15:01.216Z,65535.0
2018-06-29T10:30:01.297Z,65535.0
2018-06-29T10:45:02.289Z,65535.0
2018-06-29T11:00:01.273Z,65535.0
2018-06-29T11:15:01.223Z,65535.0
2018-06-29T11:30:01.360Z,65535.0
2018-06-29T11:45:01.433Z,65535.0
2018-06-29T12:00:01.437Z,65535.0
2018-06-29T12:15:01.364Z,65535.0
2018-06-29T12:30:01.325Z,65535.0
2018-06-29T12:45:01.428Z,65535.0
2018-06-29T13:00:01.371Z,65535.0
2018-06-29T13:15:02.299Z,65535.0
2018-06-29T13:30:01.332Z,65535.0
2018-06-29T13:45:01.307Z,65535.0
2018-06-29T14:00:01.418Z,65535.0
2018-06-29T14:15:01.288Z,65535.0
2018-06-29T14:30:02.331Z,65535.0
2018-06-29T14:45:01.660Z,65535.0
2018-06-29T15:00:01.441Z,65535.0
2018-06-29T15:15:01.239Z,65535.0
2018-06-29T15:30:01.366Z,65535.0
2018-06-29T15:45:01.243Z,65535.0
2018-06-29T16:00:01.419Z,65535.0
2018-06-29T16:15:01.233Z,65535.0
2018-06-29T16:22:01.061Z,65420.2
2018-06-29T16:25:01.239Z,65042.3
2018-06-29T16:26:01.088Z,63038.1
2018-06-29T16:27:01.055Z,61345.1
2018-06-29T16:28:01.058Z,61089.1
2018-06-29T16:29:01.095Z,59597.7
2018-06-29T16:30:01.229Z,57995.3
2018-06-29T16:31:01.059Z,56358.1
2018-06-29T16:32:01.092Z,54217.5
2018-06-29T16:33:01.093Z,52027.0
2018-06-29T16:34:01.125Z,49838.6
2018-06-29T16:35:01.263Z,47923.1
2018-06-29T16:36:01.129Z,46170.3
2018-06-29T16:37:01.058Z,44234.1
2018-06-29T16:38:01.096Z,42147.5
2018-06-29T16:39:01.137Z,39867.9
2018-06-29T16:40:01.238Z,38046.8
2018-06-29T16:41:01.061Z,39329.9
2018-06-29T16:42:01.066Z,41022.9
2018-06-29T16:43:01.060Z,40495.1
2018-06-29T16:44:01.125Z,39654.9
2018-06-29T16:45:01.240Z,38903.3
2018-06-29T16:46:01.106Z,38175.5
2018-06-29T16:47:01.064Z,37943.4
2018-06-29T16:48:01.068Z,37747.1
2018-06-29T16:49:01.131Z,37541.3
2018-06-29T16:50:01.237Z,37047.9
2018-06-29T16:51:01.096Z,36383.9
2018-06-29T16:52:01.068Z,36014.5
2018-06-29T16:53:01.066Z,35678.3
2018-06-29T16:55:01.415Z,35514.0
2018-06-29T16:56:01.047Z,35257.3
2018-06-29T16:57:01.046Z,33526.8
2018-06-29T16:58:01.084Z,31068.4
2018-06-29T16:59:01.107Z,29379.8
2018-06-29T17:00:01.202Z,29245.1
2018-06-29T17:01:01.082Z,29114.8
2018-06-29T17:02:01.083Z,28991.0
2018-06-29T17:03:01.083Z,28870.6
2018-06-29T17:04:01.086Z,28760.1
2018-06-29T17:05:01.234Z,28656.7
2018-06-29T17:06:01.085Z,28555.6
2018-06-29T17:07:01.082Z,28454.7
2018-06-29T17:08:01.051Z,28350.1
2018-06-29T17:09:01.085Z,28241.8
2018-06-29T17:10:01.230Z,28147.2
2018-06-29T17:11:01.049Z,28057.3
2018-06-29T17:12:01.085Z,27955.7
2018-06-29T17:13:01.058Z,27854.3
2018-06-29T17:14:01.053Z,27761.2
2018-06-29T17:15:01.209Z,27658.1
2018-06-29T17:16:01.088Z,27566.5
2018-06-29T17:17:01.052Z,27473.6
2018-06-29T17:18:01.057Z,27380.8
2018-06-29T17:19:01.192Z,27285.6
2018-06-29T17:20:01.231Z,27186.0
2018-06-29T17:21:01.053Z,27094.5
2018-06-29T17:22:01.056Z,27006.1
2018-06-29T17:23:01.160Z,26919.6
2018-06-29T17:24:01.142Z,26833.9
2018-06-29T17:25:01.235Z,26749.7
2018-06-29T17:26:01.059Z,26668.3
2018-06-29T17:27:01.058Z,26589.9
2018-06-29T17:28:01.059Z,26520.9
2018-06-29T17:29:01.223Z,26458.9
2018-06-29T17:30:01.227Z,26384.5
2018-06-29T17:31:01.054Z,26309.5
2018-06-29T17:32:01.117Z,26234.6
2018-06-29T17:33:01.087Z,26159.6
2018-06-29T17:34:01.197Z,26086.7
2018-06-29T17:35:01.263Z,26020.7
2018-06-29T17:36:01.069Z,25949.3
2018-06-29T17:37:01.093Z,25902.1
2018-06-29T17:38:01.060Z,25879.8
2018-06-29T17:39:01.086Z,25963.9
2018-06-29T17:40:01.230Z,26107.2
2018-06-29T17:41:01.094Z,26102.9
2018-06-29T17:42:01.092Z,26034.6
2018-06-29T17:43:01.091Z,25958.4
2018-06-29T17:44:01.056Z,25875.3
2018-06-29T17:45:01.233Z,25802.8
2018-06-29T17:46:01.059Z,25730.5
2018-06-29T17:47:01.062Z,25660.0
2018-06-29T17:48:01.090Z,25587.6
2018-06-29T17:49:01.097Z,25513.4
2018-06-29T17:50:01.202Z,25432.5
2018-06-29T17:51:01.064Z,25356.1
2018-06-29T17:52:01.096Z,25251.6
2018-06-29T17:53:01.062Z,25122.1
2018-06-29T17:54:01.061Z,24885.3
2018-06-29T17:56:01.080Z,24583.1
2018-06-29T17:57:01.045Z,24426.9
2018-06-29T17:58:01.076Z,24330.3
2018-06-29T17:59:01.075Z,24233.3
2018-06-29T18:00:01.225Z,24135.2
2018-06-29T18:01:01.045Z,24036.3
2018-06-29T18:02:01.111Z,23935.5
2018-06-29T18:03:01.049Z,23832.3
2018-06-29T18:04:01.049Z,23727.3
2018-06-29T18:05:01.287Z,23621.9
2018-06-29T18:06:01.081Z,23512.9
2018-06-29T18:07:01.101Z,23400.7
2018-06-29T18:08:01.115Z,23291.0
2018-06-29T18:09:01.078Z,23179.5
2018-06-29T18:10:01.244Z,23065.6
2018-06-29T18:11:01.082Z,22956.3
2018-06-29T18:12:01.061Z,22844.9
2018-06-29T18:13:01.265Z,22734.3
2018-06-29T18:14:01.087Z,22620.7
2018-06-29T18:15:01.240Z,22504.3
2018-06-29T18:16:01.063Z,22385.0
2018-06-29T18:17:01.114Z,22266.6
2018-06-29T18:18:01.150Z,22144.4
2018-06-29T18:19:01.141Z,22021.1
2018-06-29T18:20:01.291Z,21895.5
2018-06-29T18:21:01.084Z,21769.5
2018-06-29T18:22:01.090Z,21643.7
2018-06-29T18:23:01.057Z,21516.8
2018-06-29T18:24:01.055Z,21386.4
2018-06-29T18:25:01.197Z,21256.3
2018-06-29T18:26:01.053Z,21124.1
2018-06-29T18:27:01.055Z,20990.3
2018-06-29T18:28:01.086Z,20856.3
2018-06-29T18:29:01.082Z,20722.6
2018-06-29T18:30:03.920Z,20588.9
2018-06-29T18:31:01.054Z,20455.5
2018-06-29T18:32:01.056Z,20320.6
2018-06-29T18:33:01.058Z,20185.9
2018-06-29T18:34:01.054Z,20052.1
2018-06-29T18:35:01.589Z,19918.4
2018-06-29T18:36:01.062Z,19783.0
2018-06-29T18:37:01.060Z,19645.1
2018-06-29T18:38:01.089Z,19505.7
2018-06-29T18:39:01.085Z,19367.1
2018-06-29T18:40:01.266Z,19226.3
2018-06-29T18:41:01.055Z,19084.5
2018-06-29T18:42:01.082Z,18941.8
2018-06-29T18:43:01.092Z,18798.1
2018-06-29T18:44:01.090Z,18652.1
2018-06-29T18:45:01.238Z,18504.5
2018-06-29T18:46:01.062Z,18355.8
2018-06-29T18:47:01.096Z,18206.4
2018-06-29T18:48:01.097Z,18060.5
2018-06-29T18:49:01.081Z,17912.0
2018-06-29T18:50:01.217Z,17761.5
2018-06-29T18:51:01.095Z,17610.3
2018-06-29T18:52:01.098Z,17458.5
2018-06-29T18:53:01.073Z,17303.7
2018-06-29T18:54:01.065Z,17147.5
2018-06-29T18:55:01.208Z,16990.6
2018-06-29T18:56:01.095Z,16832.7
2018-06-29T18:57:01.099Z,16672.7
2018-06-29T18:58:01.062Z,16511.1
2018-06-29T18:59:01.096Z,16347.5
2018-06-29T19:00:01.246Z,16183.4
2018-06-29T19:01:01.061Z,16016.8
2018-06-29T19:02:01.068Z,15847.9
2018-06-29T19:03:01.132Z,15673.0
2018-06-29T19:04:01.096Z,15496.6
2018-06-29T19:05:01.269Z,15318.4
2018-06-29T19:06:01.133Z,15138.5
2018-06-29T19:07:01.073Z,14957.1
2018-06-29T19:09:01.097Z,14761.3
2018-06-29T19:10:01.238Z,14563.5
2018-06-29T19:11:01.047Z,14364.1
2018-06-29T19:12:01.079Z,14162.9
2018-06-29T19:13:01.085Z,13960.5
2018-06-29T19:14:01.056Z,13756.0
2018-06-29T19:15:01.197Z,13549.7
2018-06-29T19:16:01.051Z,13341.9
2018-06-29T19:17:01.086Z,13132.1
2018-06-29T19:18:01.085Z,12921.3
2018-06-29T19:19:01.095Z,12708.2
2018-06-29T19:20:01.233Z,12493.4
2018-06-29T19:21:01.083Z,12276.6
2018-06-29T19:22:01.086Z,12058.6
2018-06-29T19:23:01.061Z,11838.3
2018-06-29T19:24:01.095Z,11629.9
2018-06-29T19:25:01.230Z,11419.8
2018-06-29T19:26:01.058Z,11207.9
2018-06-29T19:27:01.057Z,10995.1
2018-06-29T19:28:01.093Z,10780.8
2018-06-29T19:29:01.126Z,10565.1
2018-06-29T19:30:01.232Z,10348.5
2018-06-29T19:31:01.061Z,10130.2
2018-06-29T19:32:01.110Z,9911.6
2018-06-29T19:33:01.099Z,9692.1
2018-06-29T19:34:01.135Z,9471.9
2018-06-29T19:35:01.270Z,9251.1
2018-06-29T19:36:01.068Z,9030.1
2018-06-29T19:37:01.067Z,8808.4
2018-06-29T19:38:01.065Z,8586.5
2018-06-29T19:39:01.136Z,8364.4
2018-06-29T19:41:01.051Z,8127.9
2018-06-29T19:42:01.088Z,7891.5
2018-06-29T19:43:01.054Z,7655.3
2018-06-29T19:44:01.097Z,7419.6
2018-06-29T19:45:01.232Z,7184.7
2018-06-29T19:46:01.056Z,6950.5
2018-06-29T19:47:01.061Z,6717.5
2018-06-29T19:48:01.055Z,6485.5
2018-06-29T19:49:01.088Z,6254.7
2018-06-29T19:50:01.232Z,6025.7
2018-06-29T19:51:01.060Z,5798.4
2018-06-29T19:52:01.089Z,5573.0
2018-06-29T19:53:01.063Z,5349.9
2018-06-29T19:54:01.062Z,5129.7
2018-06-29T19:55:01.236Z,4912.2
2018-06-29T19:56:01.099Z,4712.1
2018-06-29T19:57:01.099Z,4515.4
2018-06-29T19:58:01.091Z,4322.1
2018-06-29T19:59:01.094Z,4132.5
2018-06-29T20:00:01.238Z,3946.8
2018-06-29T20:01:01.064Z,3765.3
2018-06-29T20:02:01.098Z,3588.1
2018-06-29T20:03:01.091Z,3415.2
2018-06-29T20:04:01.063Z,3246.9
2018-06-29T20:05:01.281Z,3083.5
2018-06-29T20:06:01.061Z,2924.7
2018-06-29T20:07:01.062Z,2770.9
2018-06-29T20:08:01.091Z,2622.1
2018-06-29T20:09:01.060Z,2478.3
2018-06-29T20:10:01.245Z,2339.3
2018-06-29T20:11:01.067Z,2205.4
2018-06-29T20:12:01.094Z,2076.5
2018-06-29T20:13:01.065Z,1952.7
2018-06-29T20:14:01.099Z,1833.8
2018-06-29T20:15:01.243Z,1719.8
2018-06-29T20:16:01.094Z,1610.8
2018-06-29T20:17:01.100Z,1506.6
2018-06-29T20:18:01.063Z,1407.3
2018-06-29T20:19:01.064Z,1312.7
2018-06-29T20:20:01.353Z,1222.7
2018-06-29T20:21:01.069Z,1137.3
2018-06-29T20:22:01.063Z,1056.3
2018-06-29T20:23:01.096Z,979.7
2018-06-29T20:24:01.066Z,907.3
2018-06-29T20:25:01.244Z,839.1
2018-06-29T20:26:01.075Z,775.1
2018-06-29T20:27:01.100Z,714.9
2018-06-29T20:28:01.078Z,658.4
2018-06-29T20:29:01.103Z,605.6
2018-06-29T20:30:01.266Z,556.3
2018-06-29T20:31:01.070Z,510.3
2018-06-29T20:32:01.067Z,467.5
2018-06-29T20:33:01.140Z,427.8
2018-06-29T20:34:01.105Z,390.9
2018-06-29T20:35:01.268Z,356.8
2018-06-29T20:36:01.069Z,325.3
2018-06-29T20:37:01.070Z,296.2
2018-06-29T20:38:01.069Z,269.5
2018-06-29T20:39:01.100Z,244.8
2018-06-29T20:40:01.285Z,222.2
2018-06-29T20:41:01.071Z,201.5
2018-06-29T20:42:01.104Z,182.5
2018-06-29T20:43:01.072Z,165.3
2018-06-29T20:44:01.109Z,149.5
2018-06-29T20:45:01.244Z,135.1
2018-06-29T20:46:01.100Z,122.1
2018-06-29T20:47:01.069Z,110.2
2018-06-29T20:48:01.099Z,99.4
2018-06-29T20:49:01.099Z,89.6
2018-06-29T20:51:01.232Z,80.5
2018-06-29T20:52:01.053Z,72.2
2018-06-29T20:53:01.083Z,64.7
2018-06-29T20:54:01.154Z,58.0
2018-06-29T20:55:01.061Z,52.0
2018-06-29T20:56:01.267Z,46.6
2018-06-29T20:57:01.094Z,41.7
2018-06-29T20:58:01.092Z,37.3
2018-06-29T20:59:01.097Z,33.4
2018-06-29T21:00:01.090Z,29.9
2018-06-29T21:01:01.262Z,26.7
2018-06-29T21:02:01.057Z,23.8
2018-06-29T21:03:01.089Z,21.2
2018-06-29T21:04:01.063Z,18.9
2018-06-29T21:05:01.058Z,16.8
2018-06-29T21:06:01.232Z,15.2
2018-06-29T21:07:01.061Z,13.7
2018-06-29T21:08:01.124Z,12.5
2018-06-29T21:09:01.090Z,11.3
2018-06-29T21:10:01.061Z,10.2
2018-06-29T21:11:01.234Z,9.2
2018-06-29T21:12:01.059Z,8.3
2018-06-29T21:13:01.095Z,7.6
2018-06-29T21:14:01.120Z,6.9
2018-06-29T21:15:01.092Z,6.2
2018-06-29T21:16:01.230Z,5.7
2018-06-29T21:17:01.063Z,5.2
2018-06-29T21:18:01.100Z,4.7
2018-06-29T21:19:01.089Z,4.3
2018-06-29T21:20:01.061Z,3.9
2018-06-29T21:21:01.275Z,3.6
2018-06-29T21:22:01.064Z,3.3
2018-06-29T21:23:01.062Z,3.1
2018-06-29T21:24:01.096Z,2.9
2018-06-29T21:25:01.099Z,2.6
2018-06-29T21:26:01.565Z,2.4
2018-06-29T21:27:01.062Z,2.2
2018-06-29T21:28:01.068Z,2.0
2018-06-29T21:29:01.095Z,1.9
2018-06-29T21:30:01.104Z,1.7
2018-06-29T21:31:01.274Z,1.6
2018-06-29T21:32:01.069Z,1.5
2018-06-29T21:33:01.093Z,1.4
2018-06-29T21:34:01.066Z,1.3
2018-06-29T21:36:01.263Z,1.2
2018-06-29T21:37:01.062Z,1.1
2018-06-29T21:39:01.162Z,1.0
2018-06-29T21:43:01.239Z,0.9
2018-06-29T21:45:01.157Z,0.8
2018-06-29T21:46:01.101Z,0.7
2018-06-29T21:49:01.288Z,0.6
2018-06-29T21:50:01.054Z,0.5
2018-06-29T21:52:01.084Z,0.4
2018-06-29T21:53:01.051Z,0.3
2018-06-29T21:55:01.202Z,0.2
2018-06-29T21:56:01.055Z,0.1
